Time;durP1;ratioP1;P1;durP2;ratioP2;P2;SDS_P1;SDS_P2;PMS_P1;PMS_P2;Temp;Humidity;BMP_temperature;BMP_pressure;BME280_temperature;BME280_humidity;BME280_pressure;Samples;Min_cycle;Max_cycle;Signal;HPM_P1;HPM_P2
2023/04/01 00:00:04;;;;;;;8.30;3.97;;;;;;;9.60;100.00;98969.91;4909272;29;20027;-85
2023/04/01 00:02:29;;;;;;;4.60;4.03;;;;;;;9.66;100.00;98974.63;4903312;29;20490;-85
2023/04/01 00:04:55;;;;;;;7.18;3.67;;;;;;;9.71;100.00;98970.56;4893625;29;20038;-85
2023/04/01 00:07:20;;;;;;;7.45;3.30;;;;;;;9.70;100.00;98967.00;4903378;29;20063;-85
2023/04/01 00:09:46;;;;;;;6.43;3.60;;;;;;;9.78;100.00;98981.63;4917435;29;20266;-85
2023/04/01 00:12:11;;;;;;;7.43;4.32;;;;;;;9.73;100.00;98977.31;4916979;29;20103;-85
2023/04/01 00:14:37;;;;;;;5.95;3.63;;;;;;;9.77;100.00;98982.88;4899724;29;20047;-86
2023/04/01 00:17:02;;;;;;;4.75;3.45;;;;;;;9.69;100.00;98976.56;4915309;29;20035;-85
2023/04/01 00:19:28;;;;;;;9.60;5.25;;;;;;;9.72;100.00;98980.53;4906601;29;20042;-85
2023/04/01 00:21:53;;;;;;;5.18;4.10;;;;;;;9.64;100.00;98982.63;4902172;29;20024;-84
2023/04/01 00:24:19;;;;;;;4.72;3.80;;;;;;;9.82;100.00;98978.81;4905781;29;20035;-85
2023/04/01 00:26:44;;;;;;;4.35;3.00;;;;;;;9.82;100.00;98982.38;4915218;29;20401;-84
2023/04/01 00:29:10;;;;;;;5.53;3.85;;;;;;;9.81;100.00;98982.81;4914247;29;20269;-85
2023/04/01 00:31:35;;;;;;;7.65;4.10;;;;;;;9.82;100.00;98982.38;4905461;29;20479;-85
2023/04/01 00:34:01;;;;;;;6.63;3.70;;;;;;;9.88;100.00;98980.72;4904729;29;20147;-85
2023/04/01 00:36:26;;;;;;;6.80;4.38;;;;;;;9.75;100.00;98982.50;4905509;29;20119;-85
2023/04/01 00:38:51;;;;;;;9.00;4.35;;;;;;;9.70;100.00;98974.59;4902427;29;20037;-85
2023/04/01 00:41:21;;;;;;;5.70;3.78;;;;;;;9.76;100.00;98986.84;4904906;29;20058;-85
2023/04/01 00:43:50;;;;;;;8.73;4.68;;;;;;;9.73;100.00;98984.91;4919851;29;20040;-84
2023/04/01 00:46:15;;;;;;;8.85;4.13;;;;;;;9.71;100.00;98981.75;4899979;29;20031;-85
2023/04/01 00:48:50;;;;;;;7.15;4.35;;;;;;;9.71;100.00;98979.72;4911996;29;20394;-85
2023/04/01 00:51:29;;;;;;;5.95;3.80;;;;;;;9.93;100.00;98987.88;4917105;29;20502;-84
2023/04/01 00:53:57;;;;;;;5.32;3.85;;;;;;;9.98;100.00;98985.38;4918363;29;20099;-84
2023/04/01 00:56:32;;;;;;;6.50;4.32;;;;;;;9.96;100.00;98987.78;4902566;29;20150;-84
2023/04/01 00:59:01;;;;;;;6.90;4.70;;;;;;;9.87;100.00;98993.13;4915877;29;20050;-84
2023/04/01 01:01:29;;;;;;;6.22;3.50;;;;;;;9.95;100.00;98991.81;4892493;29;20698;-84
2023/04/01 01:03:55;;;;;;;7.05;4.28;;;;;;;9.80;100.00;98984.03;4910485;29;20026;-84
2023/04/01 01:06:38;;;;;;;7.18;4.88;;;;;;;9.83;100.00;98989.56;4911631;29;20122;-85
2023/04/01 01:09:22;;;;;;;10.23;4.88;;;;;;;9.75;100.00;98994.44;4911130;29;21496;-84
2023/04/01 01:12:12;;;;;;;7.68;4.72;;;;;;;9.81;100.00;98986.41;4917294;29;20032;-85
2023/04/01 01:14:57;;;;;;;7.72;4.15;;;;;;;9.95;100.00;98997.41;4905733;29;20070;-84
2023/04/01 01:17:41;;;;;;;5.90;4.07;;;;;;;10.03;100.00;98991.69;4923863;29;20028;-85
2023/04/01 01:20:22;;;;;;;5.72;4.30;;;;;;;9.93;100.00;99001.84;4907875;29;20050;-84
2023/04/01 01:23:02;;;;;;;5.55;3.97;;;;;;;10.06;100.00;98996.47;4923339;29;20035;-84
2023/04/01 01:25:44;;;;;;;9.13;4.72;;;;;;;10.05;100.00;99001.25;4927958;29;20039;-84
2023/04/01 01:28:43;;;;;;;9.38;5.25;;;;;;;10.03;100.00;99005.69;4926945;29;20032;-84
2023/04/01 01:31:47;;;;;;;8.02;4.72;;;;;;;9.91;100.00;99002.25;4910861;29;20023;-84
2023/04/01 01:34:41;;;;;;;9.10;5.38;;;;;;;10.03;100.00;99006.47;4894341;29;20052;-85
2023/04/01 01:37:12;;;;;;;7.32;4.85;;;;;;;10.04;100.00;98999.69;4878940;29;20078;-85
2023/04/01 01:39:41;;;;;;;7.32;4.30;;;;;;;10.04;100.00;98987.72;4913578;29;20063;-85
2023/04/01 01:42:11;;;;;;;7.28;3.97;;;;;;;10.17;100.00;99009.06;4901415;29;20082;-84
2023/04/01 01:44:38;;;;;;;6.78;4.45;;;;;;;10.10;100.00;99005.59;4915008;29;20471;-84
2023/04/01 01:47:04;;;;;;;6.78;4.45;;;;;;;10.05;100.00;99004.03;4916058;29;20091;-84
2023/04/01 01:49:33;;;;;;;7.22;4.28;;;;;;;10.20;100.00;98999.03;4893727;29;20317;-84
2023/04/01 01:51:58;;;;;;;10.57;5.85;;;;;;;10.15;100.00;99005.91;4896703;29;20108;-84
2023/04/01 01:54:25;;;;;;;12.88;7.40;;;;;;;9.97;100.00;99008.97;4898365;29;20155;-84
2023/04/01 01:57:04;;;;;;;8.93;5.20;;;;;;;10.03;100.00;99002.88;4915905;29;20167;-84
2023/04/01 01:59:32;;;;;;;11.82;6.53;;;;;;;10.09;100.00;99012.38;4894822;29;20059;-84
2023/04/01 02:01:59;;;;;;;15.40;7.75;;;;;;;9.97;100.00;99020.13;4924353;29;20035;-85
2023/04/01 02:04:25;;;;;;;11.38;7.25;;;;;;;10.01;100.00;99017.28;4924966;29;20027;-84
2023/04/01 02:07:02;;;;;;;15.68;6.88;;;;;;;10.10;100.00;99017.56;4908599;29;20035;-85
2023/04/01 02:09:29;;;;;;;11.00;7.07;;;;;;;10.05;100.00;99022.81;4906689;29;20034;-85
2023/04/01 02:12:03;;;;;;;15.00;7.03;;;;;;;10.02;100.00;99023.69;4922751;29;20038;-85
2023/04/01 02:14:35;;;;;;;14.50;7.70;;;;;;;10.18;100.00;99026.63;4923687;29;20157;-85
2023/04/01 02:17:10;;;;;;;17.27;8.23;;;;;;;10.16;100.00;99029.06;4909724;29;20568;-84
2023/04/01 02:19:46;;;;;;;14.18;7.38;;;;;;;10.21;100.00;99028.59;4901005;29;20028;-84
2023/04/01 02:22:16;;;;;;;12.15;7.00;;;;;;;10.17;100.00;99016.66;4905291;29;20040;-85
2023/04/01 02:24:43;;;;;;;10.30;5.40;;;;;;;10.34;100.00;99028.84;4907437;29;20086;-84
2023/04/01 02:27:12;;;;;;;14.48;7.45;;;;;;;10.31;100.00;99033.28;4927382;29;20142;-85
2023/04/01 02:29:38;;;;;;;20.55;8.90;;;;;;;10.30;100.00;99028.88;4922880;29;20390;-85
2023/04/01 02:32:05;;;;;;;15.50;7.50;;;;;;;10.30;100.00;99028.09;4912309;29;20042;-84
2023/04/01 02:34:32;;;;;;;13.23;7.43;;;;;;;10.30;100.00;99040.06;4908311;29;20032;-85
2023/04/01 02:36:57;;;;;;;21.65;8.90;;;;;;;10.21;100.00;99031.41;4904532;29;20118;-84
2023/04/01 02:39:25;;;;;;;12.52;7.10;;;;;;;10.25;100.00;99046.13;4927399;29;20225;-84
2023/04/01 02:41:50;;;;;;;15.95;7.57;;;;;;;10.22;100.00;99046.94;4905745;29;20042;-85
2023/04/01 02:44:16;;;;;;;12.48;6.50;;;;;;;10.26;100.00;99039.31;4909063;29;20035;-85
2023/04/01 02:46:41;;;;;;;11.88;7.00;;;;;;;10.22;100.00;99032.97;4910175;29;20122;-85
2023/04/01 02:49:06;;;;;;;18.00;7.47;;;;;;;10.31;100.00;99047.25;4925361;29;20028;-85
2023/04/01 02:51:33;;;;;;;21.98;8.85;;;;;;;10.36;100.00;99038.41;4921456;29;20515;-85
2023/04/01 02:53:58;;;;;;;14.57;7.15;;;;;;;10.35;100.00;99045.22;4920802;29;20410;-85
2023/04/01 02:56:24;;;;;;;17.65;8.45;;;;;;;10.31;100.00;99047.25;4911776;29;20027;-85
2023/04/01 02:58:50;;;;;;;12.77;6.72;;;;;;;10.34;100.00;99054.81;4913007;29;20027;-84
2023/04/01 03:01:16;;;;;;;19.23;8.27;;;;;;;10.29;100.00;99049.69;4922990;29;20052;-85
2023/04/01 03:03:41;;;;;;;16.08;8.25;;;;;;;10.22;100.00;99058.13;4909278;29;20763;-85
2023/04/01 03:06:08;;;;;;;14.75;7.85;;;;;;;10.18;100.00;99054.59;4906121;29;20046;-85
2023/04/01 03:08:34;;;;;;;18.48;8.50;;;;;;;10.25;100.00;99048.91;4920742;29;20106;-85
2023/04/01 03:10:59;;;;;;;13.43;7.45;;;;;;;10.18;100.00;99060.19;4906356;29;20028;-85
2023/04/01 03:13:25;;;;;;;12.07;6.78;;;;;;;10.29;100.00;99066.47;4906692;29;20074;-85
2023/04/01 03:15:51;;;;;;;12.23;6.10;;;;;;;10.30;100.00;99062.44;4904915;29;20142;-85
2023/04/01 03:18:17;;;;;;;17.70;8.23;;;;;;;10.17;100.00;99064.19;4907168;29;20028;-85
2023/04/01 03:20:42;;;;;;;19.00;8.38;;;;;;;10.25;100.00;99074.09;4923217;29;20038;-84
2023/04/01 03:23:08;;;;;;;16.27;8.63;;;;;;;10.23;100.00;99070.13;4902291;29;20587;-85
2023/04/01 03:25:33;;;;;;;15.70;6.82;;;;;;;10.06;100.00;99055.16;4894460;29;20662;-85
2023/04/01 03:27:59;;;;;;;17.50;7.53;;;;;;;10.05;100.00;99064.75;4893352;29;20493;-84
2023/04/01 03:30:26;;;;;;;17.55;8.45;;;;;;;10.29;100.00;99079.63;4899001;29;20461;-85
2023/04/01 03:32:52;;;;;;;14.45;7.97;;;;;;;10.37;100.00;99081.94;4894615;29;20031;-85
2023/04/01 03:35:18;;;;;;;16.77;8.95;;;;;;;10.37;100.00;99084.75;4906999;29;20122;-85
2023/04/01 03:37:43;;;;;;;14.93;7.95;;;;;;;10.34;100.00;99088.34;4924971;29;20114;-85
2023/04/01 03:40:09;;;;;;;14.98;8.23;;;;;;;10.26;100.00;99080.47;4925159;29;20043;-85
2023/04/01 03:42:35;;;;;;;14.98;7.95;;;;;;;10.30;100.00;99101.59;4906311;29;20032;-85
2023/04/01 03:45:00;;;;;;;22.98;10.82;;;;;;;10.16;100.00;99087.75;4927903;29;20032;-85
2023/04/01 03:47:26;;;;;;;21.48;9.23;;;;;;;10.09;100.00;99094.25;4906550;29;20028;-85
2023/04/01 03:49:52;;;;;;;20.15;9.45;;;;;;;10.06;100.00;99097.09;4923860;29;20549;-85
2023/04/01 03:52:17;;;;;;;16.75;8.05;;;;;;;10.06;100.00;99097.88;4903903;29;20401;-85
2023/04/01 03:54:42;;;;;;;17.95;9.50;;;;;;;9.95;100.00;99091.63;4905732;29;20024;-85
2023/04/01 03:57:08;;;;;;;14.32;7.55;;;;;;;9.98;100.00;99097.16;4924953;29;20035;-85
2023/04/01 03:59:33;;;;;;;20.70;8.52;;;;;;;9.92;100.00;99092.47;4924769;29;20032;-85
2023/04/01 04:01:59;;;;;;;18.33;9.00;;;;;;;9.84;100.00;99102.91;4907072;29;20039;-84
2023/04/01 04:04:25;;;;;;;16.60;8.00;;;;;;;9.76;100.00;99095.81;4918689;29;20023;-85
2023/04/01 04:06:51;;;;;;;16.92;10.05;;;;;;;9.89;100.00;99105.28;4904662;29;20087;-85
2023/04/01 04:09:16;;;;;;;15.60;7.60;;;;;;;9.94;100.00;99107.59;4909626;29;20550;-85
2023/04/01 04:11:42;;;;;;;18.65;9.27;;;;;;;10.02;100.00;99107.53;4926113;29;20031;-85
2023/04/01 04:14:07;;;;;;;17.05;8.38;;;;;;;10.15;100.00;99117.72;4905482;29;20034;-85
2023/04/01 04:16:36;;;;;;;19.92;10.50;;;;;;;10.14;100.00;99116.16;4891460;29;20398;-85
2023/04/01 04:19:02;;;;;;;22.13;9.63;;;;;;;10.17;100.00;99114.53;4924118;29;20034;-85
2023/04/01 04:21:27;;;;;;;14.95;7.75;;;;;;;10.22;100.00;99122.44;4908689;29;20027;-84
2023/04/01 04:23:53;;;;;;;15.40;8.88;;;;;;;10.27;100.00;99124.78;4908616;29;20505;-84
2023/04/01 04:26:18;;;;;;;20.67;8.95;;;;;;;10.25;100.00;99118.81;4927555;29;20045;-85
2023/04/01 04:28:44;;;;;;;17.08;7.53;;;;;;;10.20;100.00;99113.69;4908440;29;20091;-84
2023/04/01 04:31:09;;;;;;;20.15;8.43;;;;;;;10.25;100.00;99130.00;4921711;29;20049;-84
2023/04/01 04:33:35;;;;;;;20.75;8.80;;;;;;;10.27;100.00;99132.41;4906714;29;20040;-85
2023/04/01 04:36:01;;;;;;;16.25;8.63;;;;;;;10.32;100.00;99141.13;4930393;29;20027;-84
2023/04/01 04:38:27;;;;;;;22.02;11.20;;;;;;;10.27;100.00;99135.97;4918258;29;20039;-85
2023/04/01 04:40:53;;;;;;;18.38;8.88;;;;;;;10.25;100.00;99135.59;4926307;29;20028;-85
2023/04/01 04:43:18;;;;;;;16.65;8.07;;;;;;;10.27;100.00;99143.59;4929062;29;20494;-85
2023/04/01 04:45:44;;;;;;;20.42;9.23;;;;;;;10.22;100.00;99146.81;4910471;29;20035;-84
2023/04/01 04:48:16;;;;;;;21.08;9.88;;;;;;;10.27;100.00;99149.16;4909731;29;20044;-85
2023/04/01 04:50:41;;;;;;;16.20;7.47;;;;;;;10.31;100.00;99156.34;4912988;29;20044;-85
2023/04/01 04:53:09;;;;;;;17.10;8.43;;;;;;;10.30;100.00;99157.53;4909683;29;20028;-85
2023/04/01 04:55:34;;;;;;;20.88;8.90;;;;;;;10.33;100.00;99158.69;4929757;29;20066;-85
2023/04/01 04:58:00;;;;;;;18.30;8.65;;;;;;;10.33;100.00;99161.47;4913978;29;20035;-85
2023/04/01 05:00:25;;;;;;;15.77;8.50;;;;;;;10.27;100.00;99165.94;4911495;29;20078;-85
2023/04/01 05:02:53;;;;;;;17.50;9.88;;;;;;;10.27;100.00;99169.53;4909402;29;20122;-85
2023/04/01 05:05:19;;;;;;;16.90;8.27;;;;;;;10.25;100.00;99166.34;4909033;29;20028;-84
2023/04/01 05:07:44;;;;;;;23.65;8.65;;;;;;;10.21;100.00;99168.41;4906149;29;20103;-85
2023/04/01 05:10:10;;;;;;;16.02;8.10;;;;;;;10.22;100.00;99169.19;4904079;29;20046;-84
2023/04/01 05:12:38;;;;;;;21.80;10.55;;;;;;;10.14;100.00;99166.50;4909040;29;20032;-84
2023/04/01 05:15:05;;;;;;;20.00;9.52;;;;;;;10.24;100.00;99181.53;4908716;29;20043;-84
2023/04/01 05:17:30;;;;;;;21.13;10.23;;;;;;;10.15;100.00;99173.66;4899134;29;20508;-85
2023/04/01 05:19:56;;;;;;;20.17;9.13;;;;;;;10.07;100.00;99177.72;4904365;29;20035;-85
2023/04/01 05:22:22;;;;;;;21.42;9.77;;;;;;;10.22;100.00;99183.94;4923063;29;20036;-85
2023/04/01 05:24:47;;;;;;;16.50;7.88;;;;;;;10.20;100.00;99180.00;4919527;29;20059;-84
2023/04/01 05:27:12;;;;;;;21.02;9.50;;;;;;;10.23;100.00;99193.94;4903434;29;20110;-85
2023/04/01 05:29:38;;;;;;;18.63;9.07;;;;;;;10.26;100.00;99195.91;4901780;29;20111;-85
2023/04/01 05:32:03;;;;;;;13.45;7.63;;;;;;;10.29;100.00;99200.69;4906934;29;20028;-84
2023/04/01 05:34:28;;;;;;;14.95;7.05;;;;;;;10.32;100.00;99205.44;4903430;29;20079;-84
2023/04/01 05:36:54;;;;;;;15.18;7.95;;;;;;;10.30;100.00;99199.47;4906980;29;20034;-85
2023/04/01 05:39:19;;;;;;;15.50;7.78;;;;;;;10.27;100.00;99208.69;4908788;29;20063;-85
2023/04/01 05:41:45;;;;;;;18.83;7.35;;;;;;;10.20;100.00;99197.56;4907563;29;20052;-85
2023/04/01 05:44:12;;;;;;;17.98;7.95;;;;;;;10.25;100.00;99216.69;4922827;29;20110;-85
2023/04/01 05:46:37;;;;;;;16.60;7.93;;;;;;;10.24;100.00;99205.91;4927105;29;20043;-85
2023/04/01 05:49:02;;;;;;;14.15;7.43;;;;;;;10.27;100.00;99214.28;4922242;29;22030;-85
2023/04/01 05:51:28;;;;;;;17.95;8.52;;;;;;;10.24;100.00;99212.28;4906812;29;20103;-85
2023/04/01 05:53:53;;;;;;;16.13;8.13;;;;;;;10.26;100.00;99221.06;4906684;29;20550;-85
2023/04/01 05:56:19;;;;;;;15.98;7.63;;;;;;;10.33;100.00;99223.00;4906319;29;20035;-85
2023/04/01 05:58:50;;;;;;;16.70;8.32;;;;;;;10.22;100.00;99228.69;4928590;29;20694;-85
2023/04/01 06:01:15;;;;;;;14.63;7.38;;;;;;;10.26;100.00;99235.03;4903518;29;20046;-85
2023/04/01 06:03:41;;;;;;;14.07;7.95;;;;;;;10.32;100.00;99244.59;4908593;29;20051;-85
2023/04/01 06:06:15;;;;;;;15.35;8.02;;;;;;;10.31;100.00;99231.84;4909014;29;20090;-85
2023/04/01 06:08:40;;;;;;;14.48;6.70;;;;;;;10.29;100.00;99228.66;4900294;29;20196;-84
2023/04/01 06:11:18;;;;;;;20.55;11.18;;;;;;;10.18;100.00;99247.50;4920110;29;20027;-85
2023/04/01 06:14:11;;;;;;;15.15;7.93;;;;;;;10.28;100.00;99251.41;4923267;29;20063;-85
2023/04/01 06:16:55;;;;;;;15.15;7.53;;;;;;;10.37;100.00;99263.75;4919133;29;20059;-85
2023/04/01 06:19:33;;;;;;;21.42;9.18;;;;;;;10.38;100.00;99262.50;4905625;29;20045;-85
2023/04/01 06:22:26;;;;;;;14.02;7.10;;;;;;;10.41;100.00;99260.09;4921119;29;20032;-85
2023/04/01 06:25:35;;;;;;;15.80;7.85;;;;;;;10.15;100.00;99268.72;4919173;29;20656;-85
2023/04/01 06:28:33;;;;;;;17.48;8.02;;;;;;;10.19;100.00;99274.28;4874277;29;20078;-85
2023/04/01 06:31:20;;;;;;;17.98;7.30;;;;;;;10.24;100.00;99273.81;4909996;29;20693;-85
2023/04/01 06:33:54;;;;;;;15.00;7.60;;;;;;;10.31;100.00;99276.59;4926508;29;20501;-85
2023/04/01 06:36:38;;;;;;;15.88;7.85;;;;;;;10.35;100.00;99276.53;4907686;29;20028;-85
2023/04/01 06:39:22;;;;;;;18.77;8.35;;;;;;;10.29;100.00;99284.59;4910467;29;20387;-85
2023/04/01 06:42:09;;;;;;;15.75;7.45;;;;;;;10.36;100.00;99284.50;4909120;29;20039;-85
2023/04/01 06:45:08;;;;;;;18.80;8.13;;;;;;;10.37;100.00;99288.91;4904206;29;20389;-85
2023/04/01 06:48:18;;;;;;;15.93;7.70;;;;;;;10.21;100.00;99294.22;4904937;29;20047;-84
2023/04/01 06:51:08;;;;;;;16.67;7.50;;;;;;;10.25;100.00;99299.78;4911300;29;20682;-85
2023/04/01 06:54:02;;;;;;;14.93;6.90;;;;;;;10.25;100.00;99295.00;4919900;29;20126;-85
2023/04/01 06:56:29;;;;;;;19.25;7.50;;;;;;;10.27;100.00;99297.38;4904591;29;20477;-85
2023/04/01 06:59:20;;;;;;;12.23;5.65;;;;;;;10.33;100.00;99302.13;4915417;29;20039;-85
2023/04/01 07:01:51;;;;;;;12.95;6.38;;;;;;;10.37;100.00;99305.69;4916261;29;20035;-85
2023/04/01 07:04:16;;;;;;;11.45;6.20;;;;;;;10.42;100.00;99312.03;4902963;29;20035;-85
2023/04/01 07:06:58;;;;;;;9.18;4.15;;;;;;;10.11;100.00;99295.13;4908306;29;20082;-85
2023/04/01 07:09:34;;;;;;;11.55;4.55;;;;;;;10.29;100.00;99315.34;4924018;29;20035;-85
2023/04/01 07:12:09;;;;;;;4.93;3.45;;;;;;;10.34;100.00;99319.69;4903950;29;20051;-85
2023/04/01 07:14:40;;;;;;;11.07;4.60;;;;;;;10.41;100.00;99322.41;4908634;29;20469;-84
2023/04/01 07:17:17;;;;;;;8.10;3.80;;;;;;;11.06;100.00;99318.91;4922822;29;20058;-90
2023/04/01 07:19:57;;;;;;;10.20;4.88;;;;;;;11.06;100.00;99336.50;4926753;29;20036;-93
2023/04/01 07:22:48;;;;;;;10.30;5.65;;;;;;;10.81;100.00;99330.41;4908993;29;20059;-93
2023/04/01 07:25:20;;;;;;;11.68;5.40;;;;;;;10.86;100.00;99343.97;4908910;29;20031;-86
2023/04/01 07:27:50;;;;;;;13.83;4.67;;;;;;;10.91;100.00;99351.88;4921965;29;20122;-90
2023/04/01 07:30:18;;;;;;;30.30;7.80;;;;;;;11.11;100.00;99349.22;4903748;29;20278;-82
2023/04/01 07:33:20;;;;;;;10.48;5.90;;;;;;;11.11;100.00;99360.44;4919065;29;20040;-83
2023/04/01 07:36:14;;;;;;;12.90;4.93;;;;;;;11.02;100.00;99360.94;4928108;29;20043;-82
2023/04/01 07:39:03;;;;;;;10.25;4.38;;;;;;;10.98;100.00;99369.41;4891245;29;20050;-81
2023/04/01 07:41:44;;;;;;;13.75;5.15;;;;;;;11.06;100.00;99372.09;4919077;29;20036;-80
2023/04/01 07:44:24;;;;;;;11.60;4.55;;;;;;;11.18;100.00;99379.97;4898661;29;20038;-79
2023/04/01 07:47:03;;;;;;;16.58;5.70;;;;;;;11.19;100.00;99385.16;4911014;29;20405;-81
2023/04/01 07:49:38;;;;;;;8.80;4.97;;;;;;;11.24;100.00;99386.69;4901637;29;20028;-82
2023/04/01 07:52:41;;;;;;;9.43;4.05;;;;;;;11.18;100.00;99389.16;4918845;29;20050;-82
2023/04/01 07:55:19;;;;;;;9.15;3.97;;;;;;;11.06;100.00;99394.50;4923901;29;20374;-85
2023/04/01 07:58:00;;;;;;;6.05;3.10;;;;;;;10.94;100.00;99402.25;4906598;29;20047;-85
2023/04/01 08:00:42;;;;;;;3.75;1.85;;;;;;;10.75;100.00;99395.25;4914647;29;20039;-85
2023/04/01 08:03:38;;;;;;;3.65;2.35;;;;;;;10.68;100.00;99400.91;4905626;29;20486;-85
2023/04/01 08:06:15;;;;;;;4.53;2.00;;;;;;;10.72;100.00;99407.25;4910843;29;20054;-85
2023/04/01 08:09:10;;;;;;;1.92;1.35;;;;;;;10.81;100.00;99408.78;4911427;29;20024;-85
2023/04/01 08:12:18;;;;;;;2.92;1.58;;;;;;;10.78;100.00;99418.78;4923400;29;20051;-85
2023/04/01 08:15:04;;;;;;;4.43;1.80;;;;;;;10.67;100.00;99420.91;4906121;29;20042;-86
2023/04/01 08:17:32;;;;;;;4.18;2.65;;;;;;;10.74;100.00;99427.22;4907106;29;20046;-86
2023/04/01 08:20:13;;;;;;;5.47;2.40;;;;;;;10.62;100.00;99424.94;4907075;29;20264;-86
2023/04/01 08:23:08;;;;;;;10.68;3.25;;;;;;;10.63;100.00;99418.16;4908747;29;20387;-85
2023/04/01 08:25:33;;;;;;;6.63;3.50;;;;;;;10.63;100.00;99432.13;4909100;29;20046;-86
2023/04/01 08:28:17;;;;;;;7.35;3.58;;;;;;;10.65;100.00;99435.31;4913328;29;20043;-86
2023/04/01 08:31:07;;;;;;;8.02;3.30;;;;;;;10.74;100.00;99444.00;4924027;29;20533;-86
2023/04/01 08:33:33;;;;;;;6.90;3.15;;;;;;;10.68;100.00;99442.88;4920111;29;20036;-86
2023/04/01 08:36:14;;;;;;;6.00;2.85;;;;;;;10.84;100.00;99452.75;4926591;29;20032;-86
2023/04/01 08:38:52;;;;;;;9.63;3.60;;;;;;;11.00;100.00;99452.97;4904516;29;20043;-86
2023/04/01 08:41:32;;;;;;;6.60;2.83;;;;;;;10.95;100.00;99456.22;4913694;29;20036;-86
2023/04/01 08:44:22;;;;;;;7.13;3.25;;;;;;;10.93;100.00;99467.81;4924521;29;20122;-86
2023/04/01 08:47:21;;;;;;;10.52;3.17;;;;;;;10.92;100.00;99445.84;4922479;29;20398;-86
2023/04/01 08:50:08;;;;;;;5.60;3.22;;;;;;;11.03;100.00;99471.75;4919097;29;20402;-85
2023/04/01 08:52:47;;;;;;;6.75;3.25;;;;;;;10.94;100.00;99457.41;4922422;29;20024;-86
2023/04/01 08:55:30;;;;;;;6.85;3.40;;;;;;;10.99;100.00;99468.97;4909947;29;20217;-86
2023/04/01 08:58:41;;;;;;;8.23;3.67;;;;;;;10.92;100.00;99476.63;4922506;29;20032;-86
2023/04/01 09:01:31;;;;;;;6.75;3.58;;;;;;;10.96;100.00;99464.22;4891950;29;20135;-85
2023/04/01 09:04:24;;;;;;;8.70;4.68;;;;;;;10.97;100.00;99485.38;4922547;29;20035;-87
2023/04/01 09:07:18;;;;;;;8.07;4.28;;;;;;;10.75;100.00;99497.97;4919621;29;20134;-86
2023/04/01 09:09:50;;;;;;;8.82;4.93;;;;;;;10.70;100.00;99496.41;4901676;29;20039;-86
2023/04/01 09:12:45;;;;;;;11.85;5.43;;;;;;;10.74;100.00;99493.59;4926347;29;20035;-86
2023/04/01 09:15:36;;;;;;;9.73;5.20;;;;;;;10.76;100.00;99496.78;4900213;29;20118;-85
2023/04/01 09:18:12;;;;;;;8.25;3.92;;;;;;;10.85;100.00;99505.50;4924221;29;20055;-86
2023/04/01 09:20:45;;;;;;;9.20;4.82;;;;;;;10.81;100.00;99509.53;4922693;29;20204;-86
2023/04/01 09:23:29;;;;;;;10.43;5.00;;;;;;;10.84;100.00;99517.13;4930290;29;20393;-86
2023/04/01 09:26:16;;;;;;;9.23;4.93;;;;;;;10.87;100.00;99514.28;4927794;29;20477;-86
2023/04/01 09:28:50;;;;;;;8.30;4.57;;;;;;;10.82;100.00;99516.75;4930310;29;20501;-86
2023/04/01 09:31:24;;;;;;;8.30;3.80;;;;;;;10.94;100.00;99525.44;4926672;29;20490;-86
2023/04/01 09:34:26;;;;;;;8.98;4.55;;;;;;;11.03;100.00;99519.34;4914672;29;20030;-86
2023/04/01 09:37:14;;;;;;;8.35;3.92;;;;;;;10.93;100.00;99528.63;4924888;29;20032;-87
2023/04/01 09:40:00;;;;;;;6.25;3.28;;;;;;;10.98;100.00;99542.16;4926768;29;20036;-87
2023/04/01 09:42:43;;;;;;;6.85;3.65;;;;;;;11.01;100.00;99544.16;4917732;29;20405;-87
2023/04/01 09:45:27;;;;;;;9.50;4.93;;;;;;;11.03;100.00;99550.13;4905372;29;20215;-88
2023/04/01 09:48:40;;;;;;;10.57;4.95;;;;;;;11.04;100.00;99556.53;4902823;29;20046;-87
2023/04/01 09:51:42;;;;;;;9.18;4.90;;;;;;;11.06;100.00;99554.91;4908407;29;20047;-87
2023/04/01 09:54:36;;;;;;;8.53;3.80;;;;;;;11.03;100.00;99554.94;4916822;29;20036;-88
2023/04/01 09:57:22;;;;;;;6.97;4.50;;;;;;;11.17;100.00;99561.22;4919375;29;20039;-78
2023/04/01 10:00:21;;;;;;;6.82;3.53;;;;;;;11.28;100.00;99568.69;4906020;29;20032;-78
2023/04/01 10:03:11;;;;;;;6.22;3.33;;;;;;;11.31;100.00;99570.69;4926748;29;20041;-79
2023/04/01 10:05:55;;;;;;;5.30;2.90;;;;;;;11.33;100.00;99576.66;4908869;29;20490;-78
2023/04/01 10:08:52;;;;;;;7.68;3.75;;;;;;;11.31;100.00;99576.28;4908961;29;20070;-81
2023/04/01 10:12:08;;;;;;;5.15;3.00;;;;;;;11.37;100.00;99580.25;4915993;29;20110;-81
2023/04/01 10:14:43;;;;;;;5.30;3.17;;;;;;;11.43;100.00;99586.19;4850254;29;20045;-81
2023/04/01 10:17:55;;;;;;;6.88;3.28;;;;;;;11.41;100.00;99595.00;4842570;29;20036;-81
2023/04/01 10:20:39;;;;;;;6.75;3.22;;;;;;;11.49;100.00;99602.13;4903528;29;20048;-81
2023/04/01 10:23:20;;;;;;;5.90;3.60;;;;;;;11.55;100.00;99602.47;4920212;29;20591;-81
2023/04/01 10:26:04;;;;;;;6.90;4.25;;;;;;;11.53;100.00;99600.09;4923043;29;20631;-81
2023/04/01 10:28:48;;;;;;;8.52;3.50;;;;;;;11.52;100.00;99598.50;4904757;29;20032;-81
2023/04/01 10:31:51;;;;;;;6.45;3.47;;;;;;;11.57;100.00;99611.25;4926553;29;20486;-81
2023/04/01 10:34:31;;;;;;;6.85;3.47;;;;;;;11.51;100.00;99613.72;4922969;29;20032;-81
2023/04/01 10:37:01;;;;;;;4.63;3.00;;;;;;;11.36;100.00;99612.25;4900091;29;20094;-82
2023/04/01 10:39:34;;;;;;;5.30;2.20;;;;;;;11.51;100.00;99622.13;4908756;29;20049;-83
2023/04/01 10:42:32;;;;;;;4.47;2.38;;;;;;;11.56;100.00;99624.47;4919177;29;20062;-84
2023/04/01 10:45:31;;;;;;;4.55;2.70;;;;;;;11.52;100.00;99618.09;4905755;29;20098;-84
2023/04/01 10:48:26;;;;;;;3.83;2.50;;;;;;;11.63;100.00;99626.41;4909669;29;20035;-83
2023/04/01 10:51:16;;;;;;;4.13;2.50;;;;;;;11.64;100.00;99622.41;4921527;29;20130;-83
2023/04/01 10:54:29;;;;;;;3.58;2.22;;;;;;;11.63;100.00;99626.41;4913524;29;20062;-83
2023/04/01 10:57:22;;;;;;;5.93;2.42;;;;;;;11.73;100.00;99630.31;4865945;29;20519;-83
2023/04/01 11:00:07;;;;;;;3.38;2.78;;;;;;;11.93;100.00;99636.94;4918661;29;20082;-81
2023/04/01 11:02:47;;;;;;;4.22;2.53;;;;;;;12.00;100.00;99639.66;4921906;29;20023;-80
2023/04/01 11:05:50;;;;;;;3.15;2.05;;;;;;;12.04;100.00;99633.19;4908315;29;20114;-81
2023/04/01 11:08:15;;;;;;;4.65;2.35;;;;;;;11.94;100.00;99643.34;4928376;29;20091;-80
2023/04/01 11:10:53;;;;;;;4.15;2.60;;;;;;;11.89;100.00;99640.97;4922769;29;20044;-80
2023/04/01 11:13:25;;;;;;;4.90;3.10;;;;;;;12.02;100.00;99644.03;4918830;29;20039;-80
2023/04/01 11:16:17;;;;;;;7.55;3.05;;;;;;;11.92;100.00;99652.16;4919814;29;20613;-80
2023/04/01 11:19:01;;;;;;;7.22;3.35;;;;;;;11.90;100.00;99656.59;4926247;29;20042;-80
2023/04/01 11:21:44;;;;;;;6.22;3.03;;;;;;;11.84;100.00;99667.44;4922806;29;20043;-81
2023/04/01 11:24:31;;;;;;;5.28;3.03;;;;;;;11.87;100.00;99663.81;4906343;29;20039;-80
2023/04/01 11:27:09;;;;;;;5.32;3.25;;;;;;;11.89;100.00;99667.03;4914834;29;20486;-80
2023/04/01 11:29:56;;;;;;;9.20;3.35;;;;;;;12.00;100.00;99673.31;4902021;29;20402;-80
2023/04/01 11:32:46;;;;;;;8.45;4.00;;;;;;;12.06;100.00;99681.25;4919006;29;20036;-80
2023/04/01 11:35:49;;;;;;;5.55;3.15;;;;;;;12.04;100.00;99678.06;4923863;29;20126;-81
2023/04/01 11:38:33;;;;;;;7.20;2.92;;;;;;;12.10;100.00;99682.03;4921040;29;20054;-80
2023/04/01 11:41:25;;;;;;;5.75;3.40;;;;;;;12.22;100.00;99689.13;4926389;29;20098;-80
2023/04/01 11:44:09;;;;;;;4.55;3.28;;;;;;;12.20;100.00;99692.31;4902563;29;20406;-80
2023/04/01 11:47:03;;;;;;;7.75;3.40;;;;;;;12.45;100.00;99697.66;4919299;29;20405;-80
2023/04/01 11:50:22;;;;;;;4.78;2.85;;;;;;;12.38;100.00;99703.38;4908161;29;20044;-80
2023/04/01 11:53:04;;;;;;;5.32;3.17;;;;;;;12.46;100.00;99715.28;4887876;29;20045;-80
2023/04/01 11:56:07;;;;;;;5.05;3.35;;;;;;;12.35;100.00;99713.41;4906418;29;20054;-81
2023/04/01 11:58:52;;;;;;;8.00;4.00;;;;;;;12.26;100.00;99723.53;4913815;29;20063;-81
2023/04/01 12:01:49;;;;;;;8.13;4.03;;;;;;;12.08;100.00;99718.91;4910267;29;20023;-81
2023/04/01 12:05:09;;;;;;;7.82;4.60;;;;;;;12.03;100.00;99738.19;4924810;29;20035;-81